Time;durP1;ratioP1;P1;durP2;ratioP2;P2;SDS_P1;SDS_P2;PMS_P1;PMS_P2;Temp;Humidity;BMP_temperature;BMP_pressure;BME280_temperature;BME280_humidity;BME280_pressure;Samples;Min_cycle;Max_cycle;Signal;HPM_P1;HPM_P2
2023/09/14 00:01:50;;;;;;;;;;;;;;;;;;5111371;27;20295;-71
2023/09/14 00:05:25;;;;;;;;;;;;;;;;;;5112212;27;20380;-70
2023/09/14 00:07:51;;;;;;;;;;;;;;;;;;5111291;28;20006;-70
2023/09/14 00:12:19;;;;;;;;;;;;;;;;;;5111978;27;19916;-72
2023/09/14 00:14:45;;;;;;;;;;;;;;;;;;5111498;28;20455;-72
2023/09/14 00:17:28;;;;;;;;;;;;;;;;;;5112074;27;19912;-71
2023/09/14 00:21:15;;;;;;;;;;;;;;;;;;5091291;27;19916;-70
2023/09/14 00:23:41;;;;;;;;;;;;;;;;;;5091441;28;19950;-72
2023/09/14 00:26:07;;;;;;;;;;;;;;;;;;5091347;28;19916;-70
2023/09/14 00:28:33;;;;;;;;;;;;;;;;;;5090907;28;19974;-70
2023/09/14 00:35:56;;;;;;;;;;;;;;;;;;5111743;27;19912;-72
2023/09/14 00:38:22;;;;;;;;;;;;;;;;;;5111829;28;20428;-72
2023/09/14 00:40:50;;;;;;;;;;;;;;;;;;5111709;28;20346;-72
2023/09/14 00:43:16;;;;;;;;;;;;;;;;;;5111351;28;19908;-72
2023/09/14 00:45:42;;;;;;;;;;;;;;;;;;5110320;28;19981;-72
2023/09/14 00:48:08;;;;;;;;;;;;;;;;;;5110282;28;19915;-72
2023/09/14 00:50:34;;;;;;;;;;;;;;;;;;5111177;28;19908;-72
2023/09/14 00:53:00;;;;;;;;;;;;;;;;;;5111770;28;19908;-70
2023/09/14 00:57:21;;;;;;;;;;;;;;;;;;5111875;27;19923;-70
2023/09/14 01:00:02;;;;;;;;;;;;;;;;;;5112285;27;19922;-72
2023/09/14 01:03:35;;;;;;;;;;;;;;;;;;5111717;27;20379;-70
2023/09/14 01:06:01;;;;;;;;;;;;;;;;;;5112141;28;20010;-71
2023/09/14 01:10:39;;;;;;;;;;;;;;;;;;5112089;27;19922;-72
2023/09/14 01:13:05;;;;;;;;;;;;;;;;;;5111793;28;19998;-70
2023/09/14 01:16:34;;;;;;;;;;;;;;;;;;5092220;28;19919;-71
2023/09/14 01:21:26;;;;;;;;;;;;;;;;;;5091700;27;19916;-70
2023/09/14 01:23:52;;;;;;;;;;;;;;;;;;5090091;28;19991;-70
2023/09/14 01:26:18;;;;;;;;;;;;;;;;;;5090907;28;19913;-70
2023/09/14 01:28:44;;;;;;;;;;;;;;;;;;5091339;28;19915;-70
2023/09/14 01:33:24;;;;;;;;;;;;;;;;;;5111343;27;19916;-72
2023/09/14 01:35:50;;;;;;;;;;;;;;;;;;5111788;28;19912;-71
2023/09/14 01:43:21;;;;;;;;;;;;;;;;;;5153325;27;20450;-71
2023/09/14 01:45:47;;;;;;;;;;;;;;;;;;5133966;27;19962;-71
2023/09/14 01:48:13;;;;;;;;;;;;;;;;;;5153078;27;20383;-71
2023/09/14 01:51:01;;;;;;;;;;;;;;;;;;5112162;27;20369;-69
2023/09/14 01:53:27;;;;;;;;;;;;;;;;;;5111339;28;19995;-70
2023/09/14 01:55:53;;;;;;;;;;;;;;;;;;5111728;28;19908;-70
2023/09/14 01:58:20;;;;;;;;;;;;;;;;;;5111676;28;19908;-71
2023/09/14 02:01:03;;;;;;;;;;;;;;;;;;5111478;27;19919;-70
2023/09/14 02:04:02;;;;;;;;;;;;;;;;;;5111825;27;19935;-70
2023/09/14 02:07:38;;;;;;;;;;;;;;;;;;5132102;27;20006;-72
2023/09/14 02:11:14;;;;;;;;;;;;;;;;;;5174062;27;19915;-72
2023/09/14 02:15:00;;;;;;;;;;;;;;;;;;5091170;27;19923;-69
2023/09/14 02:17:26;;;;;;;;;;;;;;;;;;5091383;28;20010;-72
2023/09/14 02:19:52;;;;;;;;;;;;;;;;;;5091346;28;19962;-72
2023/09/14 02:22:18;;;;;;;;;;;;;;;;;;5089571;28;19915;-72
2023/09/14 02:24:44;;;;;;;;;;;;;;;;;;5090057;28;19908;-73
2023/09/14 02:29:12;;;;;;;;;;;;;;;;;;5111597;27;19912;-71
2023/09/14 02:33:30;;;;;;;;;;;;;;;;;;5071725;28;19923;-70
2023/09/14 02:36:12;;;;;;;;;;;;;;;;;;5111628;27;19916;-73
2023/09/14 02:41:17;;;;;;;;;;;;;;;;;;5112601;27;19916;-72
2023/09/14 02:43:43;;;;;;;;;;;;;;;;;;5111551;28;19917;-72
2023/09/14 02:46:09;;;;;;;;;;;;;;;;;;5111840;28;19932;-72
2023/09/14 02:48:35;;;;;;;;;;;;;;;;;;5111351;28;19952;-70
2023/09/14 02:51:01;;;;;;;;;;;;;;;;;;5110308;28;20286;-70
2023/09/14 02:56:29;;;;;;;;;;;;;;;;;;5111512;27;19916;-71
2023/09/14 02:58:55;;;;;;;;;;;;;;;;;;5111802;28;20007;-70
2023/09/14 03:03:16;;;;;;;;;;;;;;;;;;5111920;27;20283;-71
2023/09/14 03:05:41;;;;;;;;;;;;;;;;;;5111735;28;19957;-70
2023/09/14 03:08:07;;;;;;;;;;;;;;;;;;5111639;28;20329;-70
2023/09/14 03:10:34;;;;;;;;;;;;;;;;;;5111354;28;19947;-70
2023/09/14 03:13:00;;;;;;;;;;;;;;;;;;5111601;28;20403;-70
2023/09/14 03:15:26;;;;;;;;;;;;;;;;;;5111831;28;19951;-70
2023/09/14 03:19:54;;;;;;;;;;;;;;;;;;5112622;27;19912;-70
2023/09/14 03:22:20;;;;;;;;;;;;;;;;;;5111761;28;20015;-70
2023/09/14 03:24:46;;;;;;;;;;;;;;;;;;5109997;28;19915;-70
2023/09/14 03:28:36;;;;;;;;;;;;;;;;;;5112355;27;19922;-72
2023/09/14 03:32:04;;;;;;;;;;;;;;;;;;5152711;27;19911;-71
2023/09/14 03:34:30;;;;;;;;;;;;;;;;;;5152988;27;20027;-71
2023/09/14 03:38:37;;;;;;;;;;;;;;;;;;5111768;27;20398;-72
2023/09/14 03:43:01;;;;;;;;;;;;;;;;;;5111872;27;20273;-70
2023/09/14 03:46:24;;;;;;;;;;;;;;;;;;5090991;27;19938;-70
2023/09/14 03:48:50;;;;;;;;;;;;;;;;;;5091388;28;20428;-70
2023/09/14 03:51:16;;;;;;;;;;;;;;;;;;5091363;28;19912;-70
2023/09/14 03:55:03;;;;;;;;;;;;;;;;;;5091611;28;19923;-72
2023/09/14 03:57:47;;;;;;;;;;;;;;;;;;5153215;27;20010;-72
2023/09/14 04:00:14;;;;;;;;;;;;;;;;;;5152530;27;19911;-72
2023/09/14 04:02:40;;;;;;;;;;;;;;;;;;5152839;27;19908;-72
2023/09/14 04:05:06;;;;;;;;;;;;;;;;;;5153104;27;19994;-69
2023/09/14 04:07:32;;;;;;;;;;;;;;;;;;5152262;27;19987;-70
2023/09/14 04:09:57;;;;;;;;;;;;;;;;;;5152620;27;19933;-70
2023/09/14 04:12:23;;;;;;;;;;;;;;;;;;5134024;27;19914;-71
2023/09/14 04:14:49;;;;;;;;;;;;;;;;;;5152198;27;19915;-71
2023/09/14 04:21:10;;;;;;;;;;;;;;;;;;5111653;27;19938;-71
2023/09/14 04:23:36;;;;;;;;;;;;;;;;;;5111554;28;19912;-71
2023/09/14 04:26:03;;;;;;;;;;;;;;;;;;5110382;28;20395;-71
2023/09/14 04:29:22;;;;;;;;;;;;;;;;;;5110442;27;20368;-72
2023/09/14 04:31:48;;;;;;;;;;;;;;;;;;5108851;28;19918;-70
2023/09/14 04:35:48;;;;;;;;;;;;;;;;;;5131816;27;19926;-71
2023/09/14 04:38:23;;;;;;;;;;;;;;;;;;5110569;27;19916;-71
2023/09/14 04:41:05;;;;;;;;;;;;;;;;;;5112142;27;19912;-71
2023/09/14 04:44:38;;;;;;;;;;;;;;;;;;5112278;27;19916;-72
2023/09/14 04:47:34;;;;;;;;;;;;;;;;;;5090139;27;19922;-72
2023/09/14 04:50:00;;;;;;;;;;;;;;;;;;5090403;28;19912;-72
2023/09/14 04:52:26;;;;;;;;;;;;;;;;;;5090736;28;19916;-72
2023/09/14 04:54:52;;;;;;;;;;;;;;;;;;5090953;28;20284;-72
2023/09/14 04:57:18;;;;;;;;;;;;;;;;;;5090460;28;19944;-72
2023/09/14 05:00:44;;;;;;;;;;;;;;;;;;5111426;27;20288;-72
2023/09/14 05:05:24;;;;;;;;;;;;;;;;;;5092178;27;19922;-72
2023/09/14 05:07:50;;;;;;;;;;;;;;;;;;5091904;28;19975;-72
2023/09/14 05:10:16;;;;;;;;;;;;;;;;;;5089723;28;19913;-72
2023/09/14 05:14:48;;;;;;;;;;;;;;;;;;5092373;27;19923;-71
2023/09/14 05:17:14;;;;;;;;;;;;;;;;;;5090981;28;20003;-71
2023/09/14 05:21:52;;;;;;;;;;;;;;;;;;5101417;27;20376;-71
2023/09/14 05:26:25;;;;;;;;;;;;;;;;;;5064450;28;19916;-71
2023/09/14 05:28:51;;;;;;;;;;;;;;;;;;5048339;28;20081;-65
2023/09/14 05:31:17;;;;;;;;;;;;;;;;;;5042154;28;19970;-64
2023/09/14 05:33:43;;;;;;;;;;;;;;;;;;5048135;28;20301;-64
2023/09/14 05:36:09;;;;;;;;;;;;;;;;;;5046738;28;20389;-65
2023/09/14 05:38:35;;;;;;;;;;;;;;;;;;5038000;28;20250;-65
2023/09/14 05:41:00;;;;;;;;;;;;;;;;;;5045962;28;19916;-64
2023/09/14 05:43:26;;;;;;;;;;;;;;;;;;5047458;28;20011;-65
2023/09/14 05:45:53;;;;;;;;;;;;;;;;;;5046950;28;19925;-65
2023/09/14 05:49:18;;;;;;;;;;;;;;;;;;5090818;27;19920;-65
2023/09/14 05:51:44;;;;;;;;;;;;;;;;;;5082509;28;20387;-65
2023/09/14 05:54:10;;;;;;;;;;;;;;;;;;5071839;28;19908;-64
2023/09/14 05:56:36;;;;;;;;;;;;;;;;;;5068959;28;19940;-64
2023/09/14 05:59:02;;;;;;;;;;;;;;;;;;5102093;28;19939;-64
2023/09/14 06:03:04;;;;;;;;;;;;;;;;;;5106475;27;20451;-67
2023/09/14 06:05:30;;;;;;;;;;;;;;;;;;5107505;28;20597;-65
2023/09/14 06:07:56;;;;;;;;;;;;;;;;;;5127094;27;20314;-65
2023/09/14 06:10:41;;;;;;;;;;;;;;;;;;5085465;27;20414;-63
2023/09/14 06:15:47;;;;;;;;;;;;;;;;;;5043496;27;3184719;-63
2023/09/14 06:18:13;;;;;;;;;;;;;;;;;;5147753;27;19915;-68
2023/09/14 06:26:06;;;;;;;;;;;;;;;;;;5110383;27;19930;-71
2023/09/14 06:28:32;;;;;;;;;;;;;;;;;;5125886;28;19911;-73
2023/09/14 06:30:59;;;;;;;;;;;;;;;;;;5113117;28;20413;-70
2023/09/14 06:34:03;;;;;;;;;;;;;;;;;;5086516;27;19921;-70
2023/09/14 06:36:30;;;;;;;;;;;;;;;;;;5086503;28;19919;-70
2023/09/14 06:38:56;;;;;;;;;;;;;;;;;;5086080;28;19909;-71
2023/09/14 06:41:22;;;;;;;;;;;;;;;;;;5084983;28;20582;-70
2023/09/14 06:43:48;;;;;;;;;;;;;;;;;;5085470;28;20415;-72
2023/09/14 06:46:14;;;;;;;;;;;;;;;;;;5083910;28;20041;-69
2023/09/14 06:48:39;;;;;;;;;;;;;;;;;;5085468;28;19913;-72
2023/09/14 06:52:08;;;;;;;;;;;;;;;;;;5086494;27;20552;-68
2023/09/14 06:54:34;;;;;;;;;;;;;;;;;;5087007;28;19912;-68
2023/09/14 06:58:01;;;;;;;;;;;;;;;;;;5087164;27;20265;-68
2023/09/14 07:00:27;;;;;;;;;;;;;;;;;;5094643;28;20573;-67
2023/09/14 07:02:53;;;;;;;;;;;;;;;;;;5086353;28;19919;-69
2023/09/14 07:06:15;;;;;;;;;;;;;;;;;;5085366;27;19922;-69
2023/09/14 07:09:56;;;;;;;;;;;;;;;;;;5094013;28;19925;-68
2023/09/14 07:12:22;;;;;;;;;;;;;;;;;;5090515;28;19912;-68
2023/09/14 07:14:48;;;;;;;;;;;;;;;;;;5095188;28;19966;-69
2023/09/14 07:17:14;;;;;;;;;;;;;;;;;;5089800;28;19955;-69
2023/09/14 07:19:40;;;;;;;;;;;;;;;;;;5089470;28;19982;-69
2023/09/14 07:26:23;;;;;;;;;;;;;;;;;;5064403;28;19923;-68
2023/09/14 07:28:49;;;;;;;;;;;;;;;;;;5069337;28;19913;-66
2023/09/14 07:31:15;;;;;;;;;;;;;;;;;;5066829;28;19909;-65
2023/09/14 07:33:41;;;;;;;;;;;;;;;;;;5063466;28;20444;-65
2023/09/14 07:37:38;;;;;;;;;;;;;;;;;;5085176;27;19917;-66
2023/09/14 07:40:05;;;;;;;;;;;;;;;;;;5083077;28;20402;-68
2023/09/14 07:42:31;;;;;;;;;;;;;;;;;;5086691;28;19919;-67
2023/09/14 07:44:57;;;;;;;;;;;;;;;;;;5087339;28;20300;-67
2023/09/14 07:47:29;;;;;;;;;;;;;;;;;;5086696;28;20327;-66
2023/09/14 07:49:55;;;;;;;;;;;;;;;;;;5088764;28;19959;-65
2023/09/14 07:52:23;;;;;;;;;;;;;;;;;;5094288;28;19966;-65
2023/09/14 07:54:51;;;;;;;;;;;;;;;;;;5085396;28;19917;-64
2023/09/14 07:57:17;;;;;;;;;;;;;;;;;;5078154;28;19925;-64
2023/09/14 07:59:43;;;;;;;;;;;;;;;;;;5079294;28;19938;-65
2023/09/14 08:02:09;;;;;;;;;;;;;;;;;;5084668;28;19916;-65
2023/09/14 08:04:35;;;;;;;;;;;;;;;;;;5080762;28;19916;-65
2023/09/14 08:07:01;;;;;;;;;;;;;;;;;;5082945;28;19916;-66
2023/09/14 08:09:27;;;;;;;;;;;;;;;;;;5085300;28;20426;-64
2023/09/14 08:11:53;;;;;;;;;;;;;;;;;;5086596;28;19919;-64
2023/09/14 08:14:19;;;;;;;;;;;;;;;;;;5083552;28;19912;-64
2023/09/14 08:16:45;;;;;;;;;;;;;;;;;;5078910;28;19924;-67
2023/09/14 08:19:11;;;;;;;;;;;;;;;;;;5085837;28;19966;-66
2023/09/14 08:21:37;;;;;;;;;;;;;;;;;;5086536;28;20416;-65
2023/09/14 08:24:03;;;;;;;;;;;;;;;;;;5088454;28;19908;-64
2023/09/14 08:28:23;;;;;;;;;;;;;;;;;;5108082;27;19922;-66
2023/09/14 08:30:49;;;;;;;;;;;;;;;;;;5106428;28;19912;-65
2023/09/14 08:33:16;;;;;;;;;;;;;;;;;;5096236;28;19951;-66
2023/09/14 08:35:42;;;;;;;;;;;;;;;;;;5108232;28;19908;-67
2023/09/14 08:38:08;;;;;;;;;;;;;;;;;;5109484;28;19924;-66
2023/09/14 08:40:34;;;;;;;;;;;;;;;;;;5109548;28;19912;-66
2023/09/14 08:43:03;;;;;;;;;;;;;;;;;;5106580;28;19973;-66
2023/09/14 08:45:29;;;;;;;;;;;;;;;;;;5108094;28;19923;-67
2023/09/14 08:47:55;;;;;;;;;;;;;;;;;;5107872;28;20312;-66
2023/09/14 08:50:21;;;;;;;;;;;;;;;;;;5103089;28;19912;-66
2023/09/14 08:52:47;;;;;;;;;;;;;;;;;;5088405;28;19913;-67
2023/09/14 08:55:13;;;;;;;;;;;;;;;;;;5088024;28;20284;-67
2023/09/14 08:57:40;;;;;;;;;;;;;;;;;;5082307;28;19958;-68
2023/09/14 09:00:15;;;;;;;;;;;;;;;;;;5106217;28;19912;-66
2023/09/14 09:02:41;;;;;;;;;;;;;;;;;;5107294;28;19918;-66
2023/09/14 09:05:06;;;;;;;;;;;;;;;;;;5085613;28;19908;-67
2023/09/14 09:07:32;;;;;;;;;;;;;;;;;;5082442;28;19929;-66
2023/09/14 09:09:58;;;;;;;;;;;;;;;;;;5080820;28;20317;-67
2023/09/14 09:12:24;;;;;;;;;;;;;;;;;;5083259;28;19986;-67
2023/09/14 09:14:50;;;;;;;;;;;;;;;;;;5087449;28;20072;-67
2023/09/14 09:17:16;;;;;;;;;;;;;;;;;;5087811;28;20365;-66
2023/09/14 09:20:22;;;;;;;;;;;;;;;;;;5089634;27;19930;-66
2023/09/14 09:22:49;;;;;;;;;;;;;;;;;;5087867;28;19967;-66
2023/09/14 09:25:15;;;;;;;;;;;;;;;;;;5089962;28;20002;-66
2023/09/14 09:27:41;;;;;;;;;;;;;;;;;;5089441;28;19913;-66
2023/09/14 09:30:08;;;;;;;;;;;;;;;;;;5086602;28;19924;-66
2023/09/14 09:32:34;;;;;;;;;;;;;;;;;;5089345;28;19915;-66
2023/09/14 09:35:00;;;;;;;;;;;;;;;;;;5083980;28;19915;-66
2023/09/14 09:37:26;;;;;;;;;;;;;;;;;;5089271;28;19913;-66
2023/09/14 09:39:54;;;;;;;;;;;;;;;;;;5090108;28;20284;-66
2023/09/14 09:42:20;;;;;;;;;;;;;;;;;;5089857;28;20296;-66
2023/09/14 09:44:46;;;;;;;;;;;;;;;;;;5088435;28;20376;-66
2023/09/14 09:47:13;;;;;;;;;;;;;;;;;;5089250;28;19912;-66
2023/09/14 09:49:39;;;;;;;;;;;;;;;;;;5087660;28;19908;-67
2023/09/14 09:52:05;;;;;;;;;;;;;;;;;;5086103;28;19909;-66
2023/09/14 09:54:31;;;;;;;;;;;;;;;;;;5085590;28;20493;-66
2023/09/14 09:56:57;;;;;;;;;;;;;;;;;;5085600;28;19916;-67
2023/09/14 09:59:25;;;;;;;;;;;;;;;;;;5085603;28;20019;-69
2023/09/14 10:01:53;;;;;;;;;;;;;;;;;;5088646;28;19908;-70
2023/09/14 10:04:19;;;;;;;;;;;;;;;;;;5088230;28;19923;-69
2023/09/14 10:06:45;;;;;;;;;;;;;;;;;;5087837;28;19908;-71
2023/09/14 10:09:11;;;;;;;;;;;;;;;;;;5087025;28;19908;-69
2023/09/14 10:11:37;;;;;;;;;;;;;;;;;;5087550;28;19916;-70
2023/09/14 10:14:03;;;;;;;;;;;;;;;;;;5087738;28;19936;-68
2023/09/14 10:16:29;;;;;;;;;;;;;;;;;;5089166;28;19908;-68
2023/09/14 10:18:55;;;;;;;;;;;;;;;;;;5096861;28;20418;-69
2023/09/14 10:21:21;;;;;;;;;;;;;;;;;;5108803;28;19908;-68
2023/09/14 10:23:47;;;;;;;;;;;;;;;;;;5109070;28;19908;-69
2023/09/14 10:26:13;;;;;;;;;;;;;;;;;;5106278;28;20352;-69
2023/09/14 10:28:39;;;;;;;;;;;;;;;;;;5109465;28;19961;-69
2023/09/14 10:31:05;;;;;;;;;;;;;;;;;;5098484;28;20288;-71
2023/09/14 10:33:31;;;;;;;;;;;;;;;;;;5094956;28;19960;-72
2023/09/14 10:35:57;;;;;;;;;;;;;;;;;;5094968;28;19916;-73
2023/09/14 10:38:25;;;;;;;;;;;;;;;;;;5095136;28;20395;-72
2023/09/14 10:40:52;;;;;;;;;;;;;;;;;;5075925;28;20377;-72
2023/09/14 10:43:18;;;;;;;;;;;;;;;;;;5093340;28;19912;-72
2023/09/14 10:45:44;;;;;;;;;;;;;;;;;;5094534;28;20356;-73
2023/09/14 10:48:10;;;;;;;;;;;;;;;;;;5083722;28;19984;-73
2023/09/14 10:50:36;;;;;;;;;;;;;;;;;;5094642;28;20317;-69
2023/09/14 10:53:02;;;;;;;;;;;;;;;;;;5075436;28;20272;-70
2023/09/14 10:55:28;;;;;;;;;;;;;;;;;;5092371;28;19935;-70
2023/09/14 10:57:54;;;;;;;;;;;;;;;;;;5092404;28;20434;-69
2023/09/14 11:00:20;;;;;;;;;;;;;;;;;;5092302;28;20023;-70
2023/09/14 11:02:46;;;;;;;;;;;;;;;;;;5092857;28;19909;-69
2023/09/14 11:05:12;;;;;;;;;;;;;;;;;;5094213;28;19941;-69
2023/09/14 11:07:39;;;;;;;;;;;;;;;;;;5094184;28;20005;-69
2023/09/14 11:10:05;;;;;;;;;;;;;;;;;;5094838;28;19908;-69
2023/09/14 11:12:31;;;;;;;;;;;;;;;;;;5073819;28;19920;-72
2023/09/14 11:14:57;;;;;;;;;;;;;;;;;;5101113;28;19912;-72
2023/09/14 11:17:27;;;;;;;;;;;;;;;;;;5093413;28;19956;-71
2023/09/14 11:19:53;;;;;;;;;;;;;;;;;;5093333;28;19920;-72
2023/09/14 11:22:19;;;;;;;;;;;;;;;;;;5091004;28;19912;-72
2023/09/14 11:24:45;;;;;;;;;;;;;;;;;;5092076;28;19931;-71
2023/09/14 11:27:11;;;;;;;;;;;;;;;;;;5092361;28;19908;-72
2023/09/14 11:29:37;;;;;;;;;;;;;;;;;;5099326;28;19923;-72
2023/09/14 11:32:03;;;;;;;;;;;;;;;;;;5107812;28;20015;-72
2023/09/14 11:34:32;;;;;;;;;;;;;;;;;;5092845;28;20004;-72
2023/09/14 11:36:58;;;;;;;;;;;;;;;;;;5096699;28;19911;-71
2023/09/14 11:39:25;;;;;;;;;;;;;;;;;;5113181;28;19976;-71
2023/09/14 11:41:52;;;;;;;;;;;;;;;;;;5112309;28;19932;-72
2023/09/14 11:44:18;;;;;;;;;;;;;;;;;;5112556;28;19938;-71
2023/09/14 11:46:44;;;;;;;;;;;;;;;;;;5113134;28;20351;-73
2023/09/14 11:49:13;;;;;;;;;;;;;;;;;;5111653;28;20006;-73
2023/09/14 11:51:39;;;;;;;;;;;;;;;;;;5113003;28;19912;-71
2023/09/14 11:54:05;;;;;;;;;;;;;;;;;;5095718;28;20280;-72
2023/09/14 11:56:33;;;;;;;;;;;;;;;;;;5114042;28;19908;-72
2023/09/14 11:59:00;;;;;;;;;;;;;;;;;;5113154;28;19961;-73
2023/09/14 12:01:26;;;;;;;;;;;;;;;;;;5113643;28;19912;-73
2023/09/14 12:03:52;;;;;;;;;;;;;;;;;;5113620;28;19914;-71
2023/09/14 12:06:18;;;;;;;;;;;;;;;;;;5111949;28;19908;-71
2023/09/14 12:08:44;;;;;;;;;;;;;;;;;;5111633;28;19999;-72
2023/09/14 12:11:10;;;;;;;;;;;;;;;;;;5107400;28;21111;-71
2023/09/14 12:13:36;;;;;;;;;;;;;;;;;;5086242;28;19922;-72
2023/09/14 12:16:03;;;;;;;;;;;;;;;;;;5090417;28;19912;-71
2023/09/14 12:18:29;;;;;;;;;;;;;;;;;;5091892;28;20582;-71
2023/09/14 12:20:55;;;;;;;;;;;;;;;;;;5093523;28;19912;-73
2023/09/14 12:23:21;;;;;;;;;;;;;;;;;;5093724;28;20003;-72
2023/09/14 12:25:47;;;;;;;;;;;;;;;;;;5093924;28;19909;-71
2023/09/14 12:28:13;;;;;;;;;;;;;;;;;;5075955;28;19953;-72
2023/09/14 12:30:39;;;;;;;;;;;;;;;;;;5093632;28;19919;-71
2023/09/14 12:33:05;;;;;;;;;;;;;;;;;;5075593;28;19915;-71
2023/09/14 12:35:31;;;;;;;;;;;;;;;;;;5075068;28;20356;-72
2023/09/14 12:37:56;;;;;;;;;;;;;;;;;;5093054;28;19924;-72
2023/09/14 12:40:22;;;;;;;;;;;;;;;;;;5087028;28;19912;-71
2023/09/14 12:42:49;;;;;;;;;;;;;;;;;;5089475;28;19998;-72
2023/09/14 12:45:15;;;;;;;;;;;;;;;;;;5092088;28;19939;-72
2023/09/14 12:47:41;;;;;;;;;;;;;;;;;;5073778;28;19963;-71
2023/09/14 12:50:11;;;;;;;;;;;;;;;;;;5092351;28;20403;-71
2023/09/14 12:52:37;;;;;;;;;;;;;;;;;;5092604;28;19967;-70
2023/09/14 12:55:06;;;;;;;;;;;;;;;;;;5092874;28;19908;-71
2023/09/14 12:57:32;;;;;;;;;;;;;;;;;;5092647;28;19919;-73
2023/09/14 12:59:58;;;;;;;;;;;;;;;;;;5092669;28;19920;-71
2023/09/14 13:02:24;;;;;;;;;;;;;;;;;;5093645;28;19908;-73
2023/09/14 13:04:51;;;;;;;;;;;;;;;;;;5093184;28;19908;-72
2023/09/14 13:07:17;;;;;;;;;;;;;;;;;;5093830;28;20420;-73
2023/09/14 13:09:44;;;;;;;;;;;;;;;;;;5093543;28;19962;-72
2023/09/14 13:12:09;;;;;;;;;;;;;;;;;;5093890;28;20013;-73
2023/09/14 13:14:37;;;;;;;;;;;;;;;;;;5093624;28;20372;-73
2023/09/14 13:17:02;;;;;;;;;;;;;;;;;;5093682;28;19915;-72
2023/09/14 13:19:28;;;;;;;;;;;;;;;;;;5093661;28;19920;-72
2023/09/14 13:21:55;;;;;;;;;;;;;;;;;;5091596;28;19908;-72
2023/09/14 13:24:22;;;;;;;;;;;;;;;;;;5073627;28;19909;-72
2023/09/14 13:26:48;;;;;;;;;;;;;;;;;;5073478;28;19909;-72
2023/09/14 13:29:17;;;;;;;;;;;;;;;;;;5091302;28;19915;-72
2023/09/14 13:31:43;;;;;;;;;;;;;;;;;;5073600;28;19976;-72
2023/09/14 13:34:09;;;;;;;;;;;;;;;;;;5091607;28;19961;-72
2023/09/14 13:36:35;;;;;;;;;;;;;;;;;;5091368;28;19994;-72
2023/09/14 13:39:01;;;;;;;;;;;;;;;;;;5092403;28;20024;-72
2023/09/14 13:41:27;;;;;;;;;;;;;;;;;;5074764;28;19908;-72
2023/09/14 13:43:53;;;;;;;;;;;;;;;;;;5074381;28;19961;-72
2023/09/14 13:46:19;;;;;;;;;;;;;;;;;;5092856;28;19952;-72
2023/09/14 13:48:45;;;;;;;;;;;;;;;;;;5093292;28;20276;-72
2023/09/14 13:51:13;;;;;;;;;;;;;;;;;;5093210;28;19951;-72
2023/09/14 13:53:39;;;;;;;;;;;;;;;;;;5093563;28;19942;-72
2023/09/14 13:56:05;;;;;;;;;;;;;;;;;;5093639;28;19908;-72
2023/09/14 13:58:31;;;;;;;;;;;;;;;;;;5092989;28;19934;-72
2023/09/14 14:00:56;;;;;;;;;;;;;;;;;;5075274;28;20011;-72
2023/09/14 14:03:22;;;;;;;;;;;;;;;;;;5093811;28;19908;-72
2023/09/14 14:05:48;;;;;;;;;;;;;;;;;;5076578;28;19908;-71
2023/09/14 14:08:15;;;;;;;;;;;;;;;;;;5097509;28;20326;-71
2023/09/14 14:10:41;;;;;;;;;;;;;;;;;;5097294;28;19908;-71
2023/09/14 14:13:07;;;;;;;;;;;;;;;;;;5097230;28;20370;-71
2023/09/14 14:15:33;;;;;;;;;;;;;;;;;;5097171;28;19916;-71
2023/09/14 14:17:58;;;;;;;;;;;;;;;;;;5096381;28;20011;-71
2023/09/14 14:20:25;;;;;;;;;;;;;;;;;;5092685;28;19966;-72
2023/09/14 14:22:51;;;;;;;;;;;;;;;;;;5095967;28;19908;-71
2023/09/14 14:25:17;;;;;;;;;;;;;;;;;;5096528;28;19922;-71
2023/09/14 14:27:43;;;;;;;;;;;;;;;;;;5095387;28;19962;-71
2023/09/14 14:30:09;;;;;;;;;;;;;;;;;;5078353;28;19908;-71
2023/09/14 14:32:35;;;;;;;;;;;;;;;;;;5078085;28;19908;-71
2023/09/14 14:35:01;;;;;;;;;;;;;;;;;;5076242;28;19915;-71
2023/09/14 14:37:27;;;;;;;;;;;;;;;;;;5096565;28;19916;-71
2023/09/14 14:39:53;;;;;;;;;;;;;;;;;;5078086;28;19916;-72
2023/09/14 14:42:19;;;;;;;;;;;;;;;;;;5096167;28;19908;-72
2023/09/14 14:44:45;;;;;;;;;;;;;;;;;;5096549;28;19987;-71
2023/09/14 14:47:11;;;;;;;;;;;;;;;;;;5096166;28;19915;-71
2023/09/14 14:49:37;;;;;;;;;;;;;;;;;;5096385;28;19908;-71
2023/09/14 14:52:03;;;;;;;;;;;;;;;;;;5096271;28;19961;-71
2023/09/14 14:54:28;;;;;;;;;;;;;;;;;;5096008;28;19917;-71
2023/09/14 14:56:54;;;;;;;;;;;;;;;;;;5096363;28;19908;-71
2023/09/14 14:59:20;;;;;;;;;;;;;;;;;;5078028;28;19916;-71
2023/09/14 15:01:47;;;;;;;;;;;;;;;;;;5095902;28;19908;-71
2023/09/14 15:04:13;;;;;;;;;;;;;;;;;;5096102;28;20398;-71
2023/09/14 15:06:39;;;;;;;;;;;;;;;;;;5096223;28;19935;-71
2023/09/14 15:09:05;;;;;;;;;;;;;;;;;;5095584;28;19909;-71
2023/09/14 15:11:31;;;;;;;;;;;;;;;;;;5095904;28;19995;-71
2023/09/14 15:13:58;;;;;;;;;;;;;;;;;;5077889;28;19908;-71
2023/09/14 15:16:24;;;;;;;;;;;;;;;;;;5096042;28;19934;-71
2023/09/14 15:18:50;;;;;;;;;;;;;;;;;;5095861;28;19924;-70
2023/09/14 15:21:16;;;;;;;;;;;;;;;;;;5095554;28;19940;-71
2023/09/14 15:23:42;;;;;;;;;;;;;;;;;;5095820;28;19908;-71
2023/09/14 15:26:08;;;;;;;;;;;;;;;;;;5095885;28;19908;-71
2023/09/14 15:28:34;;;;;;;;;;;;;;;;;;5095327;28;20041;-71
2023/09/14 15:31:01;;;;;;;;;;;;;;;;;;5095619;28;19947;-70
2023/09/14 15:33:27;;;;;;;;;;;;;;;;;;5077447;28;19947;-73
2023/09/14 15:35:53;;;;;;;;;;;;;;;;;;5095162;28;19962;-71
2023/09/14 15:38:19;;;;;;;;;;;;;;;;;;5095628;28;19953;-71
2023/09/14 15:40:45;;;;;;;;;;;;;;;;;;5077340;28;19912;-71
2023/09/14 15:43:11;;;;;;;;;;;;;;;;;;5095089;28;20418;-71
2023/09/14 15:45:37;;;;;;;;;;;;;;;;;;5095639;28;19908;-71
2023/09/14 15:48:03;;;;;;;;;;;;;;;;;;5095297;28;19908;-71
2023/09/14 15:50:29;;;;;;;;;;;;;;;;;;5076800;28;19916;-71
2023/09/14 15:52:55;;;;;;;;;;;;;;;;;;5077110;28;20369;-71
2023/09/14 15:55:21;;;;;;;;;;;;;;;;;;5091112;28;20291;-70
2023/09/14 15:57:47;;;;;;;;;;;;;;;;;;5077306;28;19912;-71
2023/09/14 16:00:13;;;;;;;;;;;;;;;;;;5086786;28;20296;-69
2023/09/14 16:02:39;;;;;;;;;;;;;;;;;;5082072;28;20277;-69
2023/09/14 16:05:08;;;;;;;;;;;;;;;;;;5074465;28;19935;-70
2023/09/14 16:07:34;;;;;;;;;;;;;;;;;;5056746;28;20299;-70
2023/09/14 16:10:00;;;;;;;;;;;;;;;;;;5056750;28;19958;-70
2023/09/14 16:12:26;;;;;;;;;;;;;;;;;;5074274;28;19909;-70
2023/09/14 16:14:51;;;;;;;;;;;;;;;;;;5074654;28;19943;-70
2023/09/14 16:17:17;;;;;;;;;;;;;;;;;;5074716;28;19908;-71
2023/09/14 16:19:44;;;;;;;;;;;;;;;;;;5074165;28;20011;-70
2023/09/14 16:22:10;;;;;;;;;;;;;;;;;;5074459;28;19912;-70
2023/09/14 16:24:36;;;;;;;;;;;;;;;;;;5073959;28;19908;-71
2023/09/14 16:27:02;;;;;;;;;;;;;;;;;;5056813;28;20331;-71
2023/09/14 16:29:28;;;;;;;;;;;;;;;;;;5073772;28;20307;-71
2023/09/14 16:31:54;;;;;;;;;;;;;;;;;;5055955;28;19959;-70
2023/09/14 16:34:20;;;;;;;;;;;;;;;;;;5074137;28;20009;-71
2023/09/14 16:36:46;;;;;;;;;;;;;;;;;;5074126;28;19970;-70
2023/09/14 16:39:12;;;;;;;;;;;;;;;;;;5073674;28;19990;-70
2023/09/14 16:41:38;;;;;;;;;;;;;;;;;;5074005;28;19915;-70
2023/09/14 16:44:04;;;;;;;;;;;;;;;;;;5074037;28;20352;-70
2023/09/14 16:46:30;;;;;;;;;;;;;;;;;;5073805;28;19919;-70
2023/09/14 16:48:56;;;;;;;;;;;;;;;;;;5073901;28;20257;-70
2023/09/14 16:51:22;;;;;;;;;;;;;;;;;;5074041;28;19909;-70
2023/09/14 16:53:48;;;;;;;;;;;;;;;;;;5073549;28;19909;-69
2023/09/14 16:56:14;;;;;;;;;;;;;;;;;;5073820;28;19909;-70
2023/09/14 16:59:39;;;;;;;;;;;;;;;;;;5111692;27;19922;-71
2023/09/14 17:02:05;;;;;;;;;;;;;;;;;;5111834;28;19919;-71
2023/09/14 17:04:31;;;;;;;;;;;;;;;;;;5111535;28;19912;-69
2023/09/14 17:06:57;;;;;;;;;;;;;;;;;;5111526;28;20422;-69
2023/09/14 17:09:23;;;;;;;;;;;;;;;;;;5111492;28;19912;-70
2023/09/14 17:11:49;;;;;;;;;;;;;;;;;;5111560;28;19908;-70
2023/09/14 17:14:16;;;;;;;;;;;;;;;;;;5109746;28;19908;-70
2023/09/14 17:17:36;;;;;;;;;;;;;;;;;;5091246;27;19923;-72
2023/09/14 17:22:21;;;;;;;;;;;;;;;;;;5106430;27;19920;-69
2023/09/14 17:24:47;;;;;;;;;;;;;;;;;;5101328;28;19919;-69
2023/09/14 17:27:13;;;;;;;;;;;;;;;;;;5110156;28;19990;-70
2023/09/14 17:29:39;;;;;;;;;;;;;;;;;;5109302;28;19908;-70
2023/09/14 17:32:05;;;;;;;;;;;;;;;;;;5107747;28;20002;-69
2023/09/14 17:34:31;;;;;;;;;;;;;;;;;;5108267;28;19908;-69
2023/09/14 17:36:58;;;;;;;;;;;;;;;;;;5108176;28;19908;-69
2023/09/14 17:39:24;;;;;;;;;;;;;;;;;;5109892;28;19922;-69
2023/09/14 17:41:50;;;;;;;;;;;;;;;;;;5109997;28;19920;-70
2023/09/14 17:44:16;;;;;;;;;;;;;;;;;;5109296;28;20414;-69
2023/09/14 17:46:42;;;;;;;;;;;;;;;;;;5111270;28;19908;-70
2023/09/14 17:49:08;;;;;;;;;;;;;;;;;;5110843;28;20284;-70
2023/09/14 17:51:33;;;;;;;;;;;;;;;;;;5111132;28;19908;-70
2023/09/14 17:53:59;;;;;;;;;;;;;;;;;;5110974;28;19920;-70
2023/09/14 17:56:25;;;;;;;;;;;;;;;;;;5109206;28;19947;-71
2023/09/14 17:58:51;;;;;;;;;;;;;;;;;;5111005;28;19908;-70
2023/09/14 18:01:17;;;;;;;;;;;;;;;;;;5109547;28;20372;-70
2023/09/14 18:03:43;;;;;;;;;;;;;;;;;;5110497;28;19931;-71
2023/09/14 18:06:09;;;;;;;;;;;;;;;;;;5110902;28;19912;-71
2023/09/14 18:08:38;;;;;;;;;;;;;;;;;;5110855;28;19961;-71
2023/09/14 18:11:04;;;;;;;;;;;;;;;;;;5109076;28;19931;-70
2023/09/14 18:13:30;;;;;;;;;;;;;;;;;;5110821;28;20356;-70
2023/09/14 18:15:56;;;;;;;;;;;;;;;;;;5109430;28;20364;-70
2023/09/14 18:19:16;;;;;;;;;;;;;;;;;;5173313;27;20344;-68